createdAt,value
2023-02-04T00:00:15.771Z,101554.78
2023-02-04T00:02:44.081Z,101555.59
2023-02-04T00:05:11.222Z,101568.81
2023-02-04T00:07:38.456Z,101580.00
2023-02-04T00:10:09.537Z,101590.34
2023-02-04T00:12:40.367Z,101595.13
2023-02-04T00:15:07.403Z,101613.28
2023-02-04T00:17:34.069Z,101619.53
2023-02-04T00:20:01.788Z,101622.59
2023-02-04T00:22:30.423Z,101629.00
2023-02-04T00:24:57.040Z,101639.28
2023-02-04T00:27:26.679Z,101643.66
2023-02-04T00:29:57.478Z,101652.41
2023-02-04T00:32:24.808Z,101652.34
2023-02-04T00:34:56.167Z,101657.88
2023-02-04T00:37:23.155Z,101679.84
2023-02-04T00:39:49.727Z,101698.56
2023-02-04T00:42:16.871Z,101700.16
2023-02-04T00:44:43.504Z,101703.91
2023-02-04T00:47:10.135Z,101716.34
2023-02-04T00:49:36.843Z,101727.38
2023-02-04T00:52:03.670Z,101735.91
2023-02-04T00:54:31.064Z,101744.31
2023-02-04T00:56:57.906Z,101758.81
2023-02-04T00:59:25.016Z,101762.31
2023-02-04T01:01:54.779Z,101768.84
2023-02-04T01:04:25.770Z,101775.81
2023-02-04T01:06:52.360Z,101801.69
2023-02-04T01:09:19.029Z,101809.00
2023-02-04T01:11:48.814Z,101807.69
2023-02-04T01:14:15.644Z,101818.38
2023-02-04T01:16:42.411Z,101827.53
2023-02-04T01:19:09.927Z,101843.06
2023-02-04T01:21:36.812Z,101846.66
2023-02-04T01:24:03.510Z,101859.09
2023-02-04T01:26:30.424Z,101847.69
2023-02-04T01:28:57.040Z,101872.13
2023-02-04T01:31:23.795Z,101876.16
2023-02-04T01:33:50.442Z,101872.88
2023-02-04T01:36:21.625Z,101884.84
2023-02-04T01:38:52.110Z,101890.03
2023-02-04T01:41:22.400Z,101892.06
2023-02-04T01:43:49.353Z,101891.91
2023-02-04T01:46:18.011Z,101890.97
2023-02-04T01:48:45.049Z,101908.97
2023-02-04T01:51:14.093Z,101900.19
2023-02-04T01:53:40.918Z,101919.88
2023-02-04T01:56:21.411Z,101927.88
2023-02-04T01:58:48.540Z,101926.88
2023-02-04T02:01:32.651Z,101928.84
2023-02-04T02:03:59.772Z,101945.00
2023-02-04T02:06:26.819Z,101949.56
2023-02-04T02:08:53.579Z,101952.84
2023-02-04T02:11:20.554Z,101966.91
2023-02-04T02:13:47.172Z,101977.84
2023-02-04T02:16:14.081Z,101987.13
2023-02-04T02:18:40.910Z,102001.78
2023-02-04T02:21:11.155Z,102008.13
2023-02-04T02:23:50.935Z,102010.13
2023-02-04T02:26:20.936Z,102019.91
2023-02-04T02:28:51.204Z,102015.84
2023-02-04T02:31:20.201Z,102030.38
2023-02-04T02:33:47.297Z,102043.06
2023-02-04T02:36:14.752Z,102038.81
2023-02-04T02:38:44.065Z,102051.81
2023-02-04T02:41:10.803Z,102049.34
2023-02-04T02:43:37.909Z,102058.72
2023-02-04T02:46:04.881Z,102061.84
2023-02-04T02:48:31.510Z,102073.94
2023-02-04T02:50:58.289Z,102078.47
2023-02-04T02:53:24.925Z,102084.09
2023-02-04T02:55:51.758Z,102095.38
2023-02-04T02:58:34.990Z,102103.28
2023-02-04T03:01:03.498Z,102111.00
2023-02-04T03:03:32.734Z,102112.66
2023-02-04T03:06:06.119Z,102110.47
2023-02-04T03:08:33.415Z,102110.59
2023-02-04T03:11:00.062Z,102117.16
2023-02-04T03:13:29.659Z,102118.69
2023-02-04T03:15:56.751Z,102131.91
2023-02-04T03:18:23.519Z,102141.31
2023-02-04T03:20:51.291Z,102150.41
2023-02-04T03:23:18.368Z,102154.66
2023-02-04T03:25:47.611Z,102156.38
2023-02-04T03:28:14.318Z,102165.81
2023-02-04T03:30:41.168Z,102160.69
2023-02-04T03:33:07.892Z,102176.88
2023-02-04T03:35:34.559Z,102177.97
2023-02-04T03:38:04.425Z,102193.88
2023-02-04T03:40:31.444Z,102201.38
2023-02-04T03:42:58.424Z,102201.78
2023-02-04T03:45:32.406Z,102201.41
2023-02-04T03:48:01.715Z,102219.53
2023-02-04T03:50:28.398Z,102222.31
2023-02-04T03:52:55.034Z,102236.50
2023-02-04T03:55:21.651Z,102245.56
2023-02-04T03:57:48.323Z,102247.03
2023-02-04T04:00:15.127Z,102265.16
2023-02-04T04:02:42.049Z,102266.47
2023-02-04T04:05:09.420Z,102270.53
2023-02-04T04:07:36.204Z,102283.25
2023-02-04T04:10:03.412Z,102296.50
2023-02-04T04:12:30.083Z,102296.94
2023-02-04T04:14:56.747Z,102310.44
2023-02-04T04:17:23.405Z,102312.41
2023-02-04T04:19:50.105Z,102314.31
2023-02-04T04:22:16.747Z,102327.94
2023-02-04T04:24:43.369Z,102332.56
2023-02-04T04:27:10.032Z,102333.44
2023-02-04T04:29:36.657Z,102344.28
2023-02-04T04:32:05.248Z,102343.97
2023-02-04T04:34:31.970Z,102354.06
2023-02-04T04:36:58.680Z,102359.66
2023-02-04T04:39:26.395Z,102367.41
2023-02-04T04:41:53.756Z,102367.34
2023-02-04T04:44:20.497Z,102374.31
2023-02-04T04:46:47.935Z,102379.22
2023-02-04T04:49:14.580Z,102380.19
2023-02-04T04:51:41.328Z,102387.31
2023-02-04T04:54:08.303Z,102388.31
2023-02-04T04:56:34.903Z,102393.09
2023-02-04T04:59:01.629Z,102402.44
2023-02-04T05:01:28.273Z,102419.34
2023-02-04T05:03:54.950Z,102420.69
2023-02-04T05:06:25.345Z,102424.84
2023-02-04T05:08:52.612Z,102436.22
2023-02-04T05:11:19.822Z,102440.03
2023-02-04T05:13:46.710Z,102447.81
2023-02-04T05:16:13.626Z,102451.53
2023-02-04T05:18:40.379Z,102460.16
2023-02-04T05:21:07.430Z,102469.97
2023-02-04T05:23:34.398Z,102463.09
2023-02-04T05:26:01.030Z,102476.94
2023-02-04T05:28:27.644Z,102484.19
2023-02-04T05:30:54.286Z,102484.94
2023-02-04T05:33:20.928Z,102488.22
2023-02-04T05:35:49.748Z,102498.47
2023-02-04T05:38:16.587Z,102504.16
2023-02-04T05:40:43.213Z,102514.13
2023-02-04T05:43:09.865Z,102523.00
2023-02-04T05:45:39.032Z,102527.44
2023-02-04T05:48:05.744Z,102532.22
2023-02-04T05:50:32.629Z,102534.66
2023-02-04T05:52:59.551Z,102533.19
2023-02-04T05:55:26.214Z,102539.94
2023-02-04T05:57:52.802Z,102543.63
2023-02-04T06:00:19.746Z,102540.16
2023-02-04T06:02:46.348Z,102544.13
2023-02-04T06:05:13.130Z,102556.31
2023-02-04T06:07:39.806Z,102562.03
2023-02-04T06:10:06.475Z,102566.97
2023-02-04T06:12:33.129Z,102570.13
2023-02-04T06:14:59.745Z,102580.16
2023-02-04T06:17:26.353Z,102579.25
2023-02-04T06:19:52.957Z,102579.44
2023-02-04T06:22:19.554Z,102578.28
2023-02-04T06:24:47.533Z,102593.22
2023-02-04T06:27:14.367Z,102596.16
2023-02-04T06:29:41.027Z,102595.38
2023-02-04T06:32:07.651Z,102602.25
2023-02-04T06:34:34.311Z,102600.31
2023-02-04T06:37:01.035Z,102604.69
2023-02-04T06:39:27.750Z,102601.38
2023-02-04T06:41:54.400Z,102603.44
2023-02-04T06:44:21.032Z,102607.81
2023-02-04T06:46:47.720Z,102599.00
2023-02-04T06:49:14.646Z,102609.38
2023-02-04T06:51:41.280Z,102611.16
2023-02-04T06:54:08.050Z,102614.91
2023-02-04T06:56:34.664Z,102620.81
2023-02-04T06:59:03.249Z,102611.69
2023-02-04T07:01:30.088Z,102627.06
2023-02-04T07:03:56.811Z,102631.19
2023-02-04T07:06:23.475Z,102628.69
2023-02-04T07:08:50.335Z,102635.81
2023-02-04T07:11:23.399Z,102640.38
2023-02-04T07:13:50.591Z,102647.28
2023-02-04T07:16:17.261Z,102650.16
2023-02-04T07:18:43.940Z,102654.31
2023-02-04T07:21:10.683Z,102664.88
2023-02-04T07:23:37.305Z,102651.91
2023-02-04T07:26:04.019Z,102661.84
2023-02-04T07:28:31.549Z,102661.13
2023-02-04T07:30:58.278Z,102664.09
2023-02-04T07:33:25.102Z,102670.78
2023-02-04T07:35:51.764Z,102686.56
2023-02-04T07:38:18.413Z,102689.13
2023-02-04T07:40:45.078Z,102691.25
2023-02-04T07:43:11.999Z,102698.25
2023-02-04T07:45:38.666Z,102701.00
2023-02-04T07:48:05.713Z,102707.34
2023-02-04T07:50:32.650Z,102716.09
2023-02-04T07:52:59.371Z,102729.19
2023-02-04T07:55:26.196Z,102722.94
2023-02-04T07:57:53.051Z,102735.09
2023-02-04T08:00:19.996Z,102744.22
2023-02-04T08:02:46.641Z,102736.78
2023-02-04T08:05:13.552Z,102757.84
2023-02-04T08:07:40.293Z,102762.69
2023-02-04T08:10:08.061Z,102768.06
2023-02-04T08:12:34.662Z,102762.34
2023-02-04T08:15:01.450Z,102768.34
2023-02-04T08:17:28.619Z,102775.56
2023-02-04T08:19:55.484Z,102770.84
2023-02-04T08:22:22.154Z,102780.38
2023-02-04T08:24:48.870Z,102769.88
2023-02-04T08:27:15.641Z,102766.22
2023-02-04T08:29:42.488Z,102779.28
2023-02-04T08:32:11.086Z,102782.84
2023-02-04T08:34:37.697Z,102787.69
2023-02-04T08:37:04.363Z,102788.94
2023-02-04T08:39:31.041Z,102787.06
2023-02-04T08:41:57.971Z,102790.56
2023-02-04T08:44:24.620Z,102791.63
2023-02-04T08:46:51.310Z,102791.38
2023-02-04T08:49:17.967Z,102798.69
2023-02-04T08:51:44.571Z,102798.69
2023-02-04T08:54:11.149Z,102794.56
2023-02-04T08:56:38.081Z,102810.25
2023-02-04T08:59:04.844Z,102805.28
2023-02-04T09:01:31.613Z,102806.91
2023-02-04T09:03:58.245Z,102801.31
2023-02-04T09:06:24.980Z,102816.25
2023-02-04T09:08:51.626Z,102817.13
2023-02-04T09:11:18.337Z,102817.50
2023-02-04T09:13:44.937Z,102819.47
2023-02-04T09:16:11.650Z,102826.41
2023-02-04T09:18:38.360Z,102827.78
2023-02-04T09:21:05.187Z,102825.31
2023-02-04T09:23:32.022Z,102823.53
2023-02-04T09:25:58.686Z,102835.28
2023-02-04T09:28:25.332Z,102839.69
2023-02-04T09:30:52.012Z,102835.31
2023-02-04T09:33:19.075Z,102837.34
2023-02-04T09:35:45.743Z,102839.88
2023-02-04T09:38:12.376Z,102842.88
2023-02-04T09:40:42.860Z,102847.28
2023-02-04T09:43:12.756Z,102853.63
2023-02-04T09:45:39.389Z,102854.34
2023-02-04T09:48:07.153Z,102856.31
2023-02-04T09:50:35.147Z,102857.28
2023-02-04T09:53:03.801Z,102860.66
2023-02-04T09:55:39.690Z,102869.97
2023-02-04T09:58:17.485Z,102865.50
2023-02-04T10:00:45.968Z,102863.97
2023-02-04T10:03:18.003Z,102867.72
2023-02-04T10:05:45.997Z,102877.16
2023-02-04T10:08:18.101Z,102867.44
2023-02-04T10:10:49.102Z,102884.63
2023-02-04T10:13:30.972Z,102886.31
2023-02-04T10:15:58.673Z,102882.69
2023-02-04T10:18:34.519Z,102895.91
2023-02-04T10:21:27.113Z,102886.03
2023-02-04T10:24:01.657Z,102893.69
2023-02-04T10:26:30.501Z,102896.16
2023-02-04T10:29:21.225Z,102892.09
2023-02-04T10:31:49.569Z,102898.13
2023-02-04T10:34:39.836Z,102902.38
2023-02-04T10:37:27.781Z,102903.13
2023-02-04T10:39:54.578Z,102897.03
2023-02-04T10:42:26.397Z,102895.09
2023-02-04T10:44:53.478Z,102897.25
2023-02-04T10:47:25.256Z,102901.53
2023-02-04T10:49:56.636Z,102898.47
2023-02-04T10:52:27.101Z,102894.59
2023-02-04T10:54:53.749Z,102898.78
2023-02-04T10:57:26.376Z,102901.75
2023-02-04T10:59:55.773Z,102901.28
2023-02-04T11:02:54.433Z,102903.09
2023-02-04T11:05:23.519Z,102907.75
2023-02-04T11:07:50.633Z,102916.44
2023-02-04T11:10:21.407Z,102913.31
2023-02-04T11:13:00.099Z,102916.44
2023-02-04T11:15:50.349Z,102917.75
2023-02-04T11:18:20.360Z,102905.69
2023-02-04T11:20:48.972Z,102898.75
2023-02-04T11:23:29.999Z,102905.38
2023-02-04T11:26:21.811Z,102911.66
2023-02-04T11:28:59.035Z,102914.63
2023-02-04T11:31:26.544Z,102919.78
2023-02-04T11:34:32.207Z,102931.25
2023-02-04T11:37:05.079Z,102934.56
2023-02-04T11:39:42.315Z,102927.53
2023-02-04T11:42:40.442Z,102940.06
2023-02-04T11:45:20.907Z,102939.53
2023-02-04T11:47:47.824Z,102934.97
2023-02-04T11:50:30.643Z,102941.00
2023-02-04T11:52:58.780Z,102940.94
2023-02-04T11:55:26.272Z,102950.56
2023-02-04T11:57:54.741Z,102950.75
2023-02-04T12:00:24.597Z,102953.78
2023-02-04T12:02:59.320Z,102950.94
2023-02-04T12:05:43.530Z,102943.81
2023-02-04T12:08:34.286Z,102949.25
2023-02-04T12:11:05.139Z,102941.91
2023-02-04T12:13:32.440Z,102944.72
2023-02-04T12:16:07.180Z,102949.81
2023-02-04T12:18:34.992Z,102940.13
2023-02-04T12:21:02.748Z,102949.22
2023-02-04T12:23:30.095Z,102956.94
2023-02-04T12:25:57.020Z,102953.13
2023-02-04T12:28:23.709Z,102957.25
2023-02-04T12:30:50.820Z,102964.31
2023-02-04T12:33:17.615Z,102956.91
2023-02-04T12:35:44.526Z,102966.53
2023-02-04T12:38:11.159Z,102967.88
2023-02-04T12:40:38.372Z,102969.66
2023-02-04T12:43:05.046Z,102961.84
2023-02-04T12:45:32.339Z,102959.53
2023-02-04T12:47:59.215Z,102961.59
2023-02-04T12:50:26.793Z,102960.22
2023-02-04T12:52:55.508Z,102961.81
2023-02-04T12:55:22.899Z,102963.78
2023-02-04T12:57:49.787Z,102967.88
2023-02-04T13:00:18.101Z,102968.50
2023-02-04T13:02:44.759Z,102977.13
2023-02-04T13:05:11.691Z,102973.84
2023-02-04T13:07:40.561Z,102974.38
2023-02-04T13:10:12.503Z,102977.19
2023-02-04T13:12:40.497Z,102987.28
2023-02-04T13:15:07.589Z,102978.00
2023-02-04T13:17:34.359Z,102986.84
2023-02-04T13:20:01.161Z,102989.44
2023-02-04T13:22:27.962Z,102979.16
2023-02-04T13:24:54.641Z,102989.59
2023-02-04T13:27:21.491Z,102981.44
2023-02-04T13:29:48.121Z,102987.09
2023-02-04T13:32:14.762Z,102982.97
2023-02-04T13:34:41.730Z,102993.78
2023-02-04T13:37:08.413Z,103005.09
2023-02-04T13:39:35.148Z,103001.56
2023-02-04T13:42:04.161Z,103001.91
2023-02-04T13:44:31.123Z,103004.50
2023-02-04T13:46:57.756Z,103005.56
2023-02-04T13:49:24.485Z,103015.59
2023-02-04T13:51:51.086Z,103023.16
2023-02-04T13:54:17.848Z,103020.97
2023-02-04T13:56:44.488Z,103014.34
2023-02-04T13:59:11.111Z,103016.88
2023-02-04T14:01:37.780Z,103025.56
2023-02-04T14:04:04.562Z,103015.34
2023-02-04T14:06:34.521Z,103031.56
2023-02-04T14:09:01.772Z,103028.22
2023-02-04T14:11:28.669Z,103027.81
2023-02-04T14:13:55.362Z,103025.16
2023-02-04T14:16:22.448Z,103035.88
2023-02-04T14:18:49.138Z,103030.09
2023-02-04T14:21:15.846Z,103037.34
2023-02-04T14:23:42.418Z,103035.16
2023-02-04T14:26:09.491Z,103030.56
2023-02-04T14:28:36.153Z,103035.84
2023-02-04T14:31:02.955Z,103044.25
2023-02-04T14:33:29.749Z,103039.88
2023-02-04T14:35:56.539Z,103049.22
2023-02-04T14:38:23.183Z,103045.81
2023-02-04T14:40:49.781Z,103056.16
2023-02-04T14:43:16.380Z,103056.63
2023-02-04T14:45:43.180Z,103070.72
2023-02-04T14:48:10.464Z,103059.97
2023-02-04T14:50:37.184Z,103072.69
2023-02-04T14:53:03.853Z,103062.66
2023-02-04T14:55:30.485Z,103067.16
2023-02-04T14:57:57.202Z,103072.66
2023-02-04T15:00:23.808Z,103073.56
2023-02-04T15:02:53.015Z,103071.25
2023-02-04T15:05:19.820Z,103077.78
2023-02-04T15:07:46.448Z,103076.25
2023-02-04T15:10:15.148Z,103080.31
2023-02-04T15:12:42.119Z,103076.91
2023-02-04T15:15:09.250Z,103090.81
2023-02-04T15:17:35.905Z,103085.59
2023-02-04T15:20:04.075Z,103073.03
2023-02-04T15:22:30.735Z,103078.59
2023-02-04T15:24:57.387Z,103087.56
2023-02-04T15:27:24.466Z,103080.13
2023-02-04T15:29:51.072Z,103088.19
2023-02-04T15:32:17.676Z,103095.88
2023-02-04T15:34:44.391Z,103104.84
2023-02-04T15:37:11.436Z,103098.56
2023-02-04T15:39:38.574Z,103095.66
2023-02-04T15:42:05.216Z,103098.81
2023-02-04T15:44:32.040Z,103104.91
2023-02-04T15:46:58.652Z,103108.47
2023-02-04T15:49:25.274Z,103111.19
2023-02-04T15:51:51.874Z,103115.19
2023-02-04T15:54:18.473Z,103113.13
2023-02-04T15:56:45.370Z,103119.72
2023-02-04T15:59:12.137Z,103118.97
2023-02-04T16:01:38.858Z,103118.16
2023-02-04T16:04:05.630Z,103122.44
2023-02-04T16:06:35.402Z,103132.44
2023-02-04T16:09:02.076Z,103138.03
2023-02-04T16:11:28.727Z,103133.72
2023-02-04T16:13:55.605Z,103140.41
2023-02-04T16:16:22.288Z,103143.22
2023-02-04T16:18:49.418Z,103134.03
2023-02-04T16:21:16.110Z,103138.69
2023-02-04T16:23:43.583Z,103144.63
2023-02-04T16:26:10.396Z,103139.34
2023-02-04T16:28:37.071Z,103137.22
2023-02-04T16:31:04.037Z,103144.53
2023-02-04T16:33:30.732Z,103139.06
2023-02-04T16:36:01.063Z,103138.72
2023-02-04T16:38:29.239Z,103136.84
2023-02-04T16:40:56.285Z,103140.94
2023-02-04T16:43:23.492Z,103142.00
2023-02-04T16:45:50.243Z,103143.47
2023-02-04T16:48:17.373Z,103151.50
2023-02-04T16:50:43.977Z,103157.19
2023-02-04T16:53:14.893Z,103161.44
2023-02-04T16:55:45.606Z,103166.44
2023-02-04T16:58:13.025Z,103165.88
2023-02-04T17:00:42.199Z,103164.78
2023-02-04T17:03:09.950Z,103171.41
2023-02-04T17:05:37.311Z,103169.34
2023-02-04T17:08:04.737Z,103174.94
2023-02-04T17:10:50.717Z,103172.94
2023-02-04T17:13:17.363Z,103179.94
2023-02-04T17:15:44.029Z,103179.81
2023-02-04T17:18:11.320Z,103179.97
2023-02-04T17:20:37.980Z,103189.34
2023-02-04T17:23:04.585Z,103190.47
2023-02-04T17:25:31.471Z,103190.81
2023-02-04T17:27:58.365Z,103191.75
2023-02-04T17:30:25.091Z,103198.94
2023-02-04T17:32:52.247Z,103194.22
2023-02-04T17:35:18.893Z,103204.69
2023-02-04T17:37:45.569Z,103201.88
2023-02-04T17:40:15.000Z,103203.69
2023-02-04T17:42:41.816Z,103207.94
2023-02-04T17:45:10.753Z,103210.00
2023-02-04T17:47:38.691Z,103202.22
2023-02-04T17:50:09.827Z,103204.69
2023-02-04T17:52:37.930Z,103209.19
2023-02-04T17:55:24.110Z,103213.34
2023-02-04T17:57:51.361Z,103221.47
2023-02-04T18:00:21.151Z,103226.41
2023-02-04T18:02:49.420Z,103227.50
2023-02-04T18:05:19.605Z,103220.56
2023-02-04T18:07:53.167Z,103221.81
2023-02-04T18:10:31.854Z,103219.97
2023-02-04T18:13:00.123Z,103216.84
2023-02-04T18:15:32.221Z,103219.31
2023-02-04T18:18:31.189Z,103224.03
2023-02-04T18:21:17.865Z,103234.06
2023-02-04T18:23:45.962Z,103231.00
2023-02-04T18:26:19.537Z,103236.19
2023-02-04T18:28:47.869Z,103233.38
2023-02-04T18:31:34.320Z,103233.72
2023-02-04T18:34:14.189Z,103244.16
2023-02-04T18:36:40.784Z,103239.22
2023-02-04T18:39:33.758Z,103238.53
2023-02-04T18:42:00.481Z,103242.72
2023-02-04T18:44:35.987Z,103251.00
2023-02-04T18:47:09.058Z,103252.38
2023-02-04T18:49:41.338Z,103248.88
2023-02-04T18:52:22.931Z,103248.44
2023-02-04T18:54:58.196Z,103251.69
2023-02-04T18:57:34.544Z,103255.69
2023-02-04T19:00:10.222Z,103253.22
2023-02-04T19:02:39.677Z,103248.25
2023-02-04T19:05:28.222Z,103248.63
2023-02-04T19:08:22.983Z,103252.31
2023-02-04T19:10:51.558Z,103257.69
2023-02-04T19:13:32.033Z,103251.13
2023-02-04T19:16:02.703Z,103256.22
2023-02-04T19:18:35.268Z,103254.41
2023-02-04T19:21:22.587Z,103253.13
2023-02-04T19:23:50.834Z,103250.94
2023-02-04T19:26:40.496Z,103245.66
2023-02-04T19:29:22.469Z,103244.66
2023-02-04T19:31:49.890Z,103246.84
2023-02-04T19:34:37.804Z,103253.91
2023-02-04T19:37:23.176Z,103251.59
2023-02-04T19:39:53.101Z,103257.00
2023-02-04T19:42:35.873Z,103263.91
2023-02-04T19:45:23.155Z,103262.91
2023-02-04T19:47:51.553Z,103261.63
2023-02-04T19:50:37.664Z,103259.63
2023-02-04T19:53:19.032Z,103270.94
2023-02-04T19:55:51.211Z,103269.19
2023-02-04T19:58:24.528Z,103263.81
2023-02-04T20:00:59.194Z,103281.78
2023-02-04T20:03:36.745Z,103282.22
2023-02-04T20:06:09.424Z,103283.59
2023-02-04T20:08:41.477Z,103285.09
2023-02-04T20:11:30.063Z,103282.22
2023-02-04T20:14:14.011Z,103291.16
2023-02-04T20:16:46.630Z,103281.50
2023-02-04T20:19:31.559Z,103283.66
2023-02-04T20:22:01.889Z,103279.94
2023-02-04T20:24:39.837Z,103280.25
2023-02-04T20:27:20.259Z,103269.84
2023-02-04T20:29:47.850Z,103276.34
2023-02-04T20:32:17.784Z,103275.50
2023-02-04T20:34:44.451Z,103273.75
2023-02-04T20:37:22.278Z,103279.28
2023-02-04T20:39:49.166Z,103277.59
2023-02-04T20:42:40.680Z,103281.50
2023-02-04T20:45:26.312Z,103289.03
2023-02-04T20:48:13.315Z,103297.28
2023-02-04T20:50:43.984Z,103297.56
2023-02-04T20:53:36.816Z,103304.53
2023-02-04T20:56:12.329Z,103288.91
2023-02-04T20:58:41.599Z,103286.94
2023-02-04T21:01:33.843Z,103293.41
2023-02-04T21:04:32.520Z,103285.03
2023-02-04T21:07:11.302Z,103286.53
2023-02-04T21:09:40.081Z,103289.47
2023-02-04T21:12:07.133Z,103293.06
2023-02-04T21:14:34.336Z,103283.13
2023-02-04T21:17:01.780Z,103283.88
2023-02-04T21:19:28.480Z,103283.25
2023-02-04T21:21:57.303Z,103283.28
2023-02-04T21:24:25.109Z,103285.25
2023-02-04T21:26:51.768Z,103285.25
2023-02-04T21:29:18.639Z,103285.59
2023-02-04T21:31:46.551Z,103293.03
2023-02-04T21:34:13.609Z,103294.56
2023-02-04T21:36:40.190Z,103296.69
2023-02-04T21:39:06.853Z,103282.72
2023-02-04T21:41:33.452Z,103287.09
2023-02-04T21:44:00.132Z,103301.03
2023-02-04T21:46:26.896Z,103299.78
2023-02-04T21:48:53.782Z,103299.25
2023-02-04T21:51:20.590Z,103312.53
2023-02-04T21:53:47.254Z,103307.00
2023-02-04T21:56:15.264Z,103309.81
2023-02-04T21:58:49.059Z,103316.78
2023-02-04T22:01:15.759Z,103318.09
2023-02-04T22:03:42.423Z,103321.19
2023-02-04T22:06:09.092Z,103324.28
2023-02-04T22:08:35.758Z,103321.81
2023-02-04T22:11:02.793Z,103318.34
2023-02-04T22:13:48.044Z,103310.34
2023-02-04T22:16:14.775Z,103307.13
2023-02-04T22:18:41.633Z,103299.53
2023-02-04T22:21:08.342Z,103292.66
2023-02-04T22:23:35.505Z,103292.16
2023-02-04T22:26:03.560Z,103290.72
2023-02-04T22:28:30.186Z,103295.75
2023-02-04T22:30:56.993Z,103292.28
2023-02-04T22:33:23.822Z,103296.41
2023-02-04T22:35:50.585Z,103295.41
2023-02-04T22:38:20.259Z,103305.84
2023-02-04T22:40:48.538Z,103299.25
2023-02-04T22:43:15.565Z,103304.69
2023-02-04T22:45:42.293Z,103292.41
2023-02-04T22:48:08.967Z,103293.78
2023-02-04T22:50:35.597Z,103296.75
2023-02-04T22:53:02.277Z,103292.25
2023-02-04T22:55:29.080Z,103287.72
2023-02-04T22:57:56.433Z,103286.97
2023-02-04T23:00:23.139Z,103289.66
2023-02-04T23:02:49.835Z,103286.69
2023-02-04T23:05:16.639Z,103285.91
2023-02-04T23:07:43.229Z,103279.84
2023-02-04T23:10:10.100Z,103265.41
2023-02-04T23:12:36.886Z,103262.44
2023-02-04T23:15:03.770Z,103265.94
2023-02-04T23:17:30.446Z,103266.81
2023-02-04T23:19:57.190Z,103264.38
2023-02-04T23:22:23.922Z,103265.16
2023-02-04T23:24:50.612Z,103258.44
2023-02-04T23:27:17.248Z,103262.69
2023-02-04T23:29:43.973Z,103265.25
2023-02-04T23:32:10.864Z,103259.22
2023-02-04T23:34:38.041Z,103270.03
2023-02-04T23:37:04.835Z,103267.44
2023-02-04T23:39:31.511Z,103271.47
2023-02-04T23:41:58.259Z,103263.19
2023-02-04T23:44:25.000Z,103268.47
2023-02-04T23:46:51.834Z,103273.91
2023-02-04T23:49:18.499Z,103263.69
2023-02-04T23:51:46.025Z,103266.50
2023-02-04T23:54:12.689Z,103276.84
2023-02-04T23:56:39.317Z,103282.91
2023-02-04T23:59:06.538Z,103279.06
